createdAt,value
2018-09-11T00:01:50.681Z,17.68
2018-09-11T00:04:18.901Z,17.68
2018-09-11T00:06:46.944Z,17.70
2018-09-11T00:09:14.992Z,17.73
2018-09-11T00:11:44.016Z,17.72
2018-09-11T00:14:12.075Z,17.71
2018-09-11T00:16:40.108Z,17.74
2018-09-11T00:19:08.135Z,17.74
2018-09-11T00:21:36.156Z,17.74
2018-09-11T00:24:04.955Z,17.79
2018-09-11T00:26:33.180Z,17.81
2018-09-11T00:29:01.250Z,17.80
2018-09-11T00:31:29.618Z,17.81
2018-09-11T00:33:57.856Z,17.82
2018-09-11T00:36:25.866Z,17.82
2018-09-11T00:38:54.140Z,17.78
2018-09-11T00:41:22.172Z,17.80
2018-09-11T00:43:50.290Z,17.82
2018-09-11T00:46:18.311Z,17.81
2018-09-11T00:48:46.322Z,17.77
2018-09-11T00:51:14.352Z,17.77
2018-09-11T00:53:42.381Z,17.76
2018-09-11T00:56:10.633Z,17.75
2018-09-11T00:58:38.955Z,17.74
2018-09-11T01:01:07.259Z,17.75
2018-09-11T01:03:35.312Z,17.71
2018-09-11T01:06:03.532Z,17.64
2018-09-11T01:08:31.622Z,17.57
2018-09-11T01:10:59.686Z,17.54
2018-09-11T01:13:27.925Z,17.53
2018-09-11T01:15:56.149Z,17.49
2018-09-11T01:18:24.376Z,17.47
2018-09-11T01:20:52.570Z,17.42
2018-09-11T01:23:20.595Z,17.41
2018-09-11T01:25:48.619Z,17.39
2018-09-11T01:28:16.655Z,17.37
2018-09-11T01:30:44.688Z,17.34
2018-09-11T01:33:12.711Z,17.31
2018-09-11T01:35:41.301Z,17.29
2018-09-11T01:38:09.334Z,17.29
2018-09-11T01:40:37.348Z,17.27
2018-09-11T01:43:05.602Z,17.27
2018-09-11T01:45:33.633Z,17.25
2018-09-11T01:48:01.661Z,17.23
2018-09-11T01:50:29.744Z,17.21
2018-09-11T01:52:57.831Z,17.18
2018-09-11T01:55:25.875Z,17.16
2018-09-11T01:57:53.908Z,17.13
2018-09-11T02:00:21.948Z,17.12
2018-09-11T02:02:50.268Z,17.10
2018-09-11T02:05:18.446Z,17.07
2018-09-11T02:07:46.552Z,17.07
2018-09-11T02:10:14.668Z,17.07
2018-09-11T02:12:42.992Z,17.03
2018-09-11T02:15:11.740Z,17.00
2018-09-11T02:17:40.344Z,16.97
2018-09-11T02:20:08.366Z,16.96
2018-09-11T02:22:36.512Z,16.95
2018-09-11T02:25:04.936Z,16.94
2018-09-11T02:27:33.147Z,16.96
2018-09-11T02:30:01.300Z,16.93
2018-09-11T02:32:29.320Z,16.90
2018-09-11T02:34:57.384Z,16.90
2018-09-11T02:37:25.427Z,16.88
2018-09-11T02:39:53.451Z,16.87
2018-09-11T02:42:21.568Z,16.86
2018-09-11T02:44:49.756Z,16.87
2018-09-11T02:47:17.784Z,16.84
2018-09-11T02:49:45.901Z,16.80
2018-09-11T02:52:14.265Z,16.76
2018-09-11T02:54:42.546Z,16.74
2018-09-11T02:57:10.731Z,16.74
2018-09-11T02:59:38.905Z,16.72
2018-09-11T03:02:06.943Z,16.72
2018-09-11T03:04:35.013Z,16.71
2018-09-11T03:07:03.045Z,16.74
2018-09-11T03:09:31.069Z,16.76
2018-09-11T03:11:59.095Z,16.78
2018-09-11T03:14:27.224Z,16.79
2018-09-11T03:16:55.284Z,16.80
2018-09-11T03:19:23.308Z,16.79
2018-09-11T03:21:51.736Z,16.78
2018-09-11T03:24:19.756Z,16.80
2018-09-11T03:26:47.775Z,16.84
2018-09-11T03:29:15.858Z,16.88
2018-09-11T03:31:43.930Z,16.90
2018-09-11T03:34:12.119Z,16.91
2018-09-11T03:36:40.172Z,16.93
2018-09-11T03:39:09.232Z,16.92
2018-09-11T03:41:37.519Z,16.92
2018-09-11T03:44:05.595Z,16.92
2018-09-11T03:46:33.686Z,16.95
2018-09-11T03:49:01.704Z,16.92
2018-09-11T03:51:29.724Z,16.92
2018-09-11T03:53:57.786Z,16.94
2018-09-11T03:56:25.803Z,16.87
2018-09-11T03:58:53.807Z,16.80
2018-09-11T04:01:21.979Z,16.79
2018-09-11T04:03:50.201Z,16.76
2018-09-11T04:06:18.481Z,16.70
2018-09-11T04:08:46.513Z,16.69
2018-09-11T04:11:14.540Z,16.64
2018-09-11T04:13:42.556Z,16.65
2018-09-11T04:16:10.948Z,16.60
2018-09-11T04:18:38.964Z,16.60
2018-09-11T04:21:07.304Z,16.60
2018-09-11T04:23:35.771Z,16.61
2018-09-11T04:26:04.705Z,16.57
2018-09-11T04:28:32.901Z,16.58
2018-09-11T04:31:00.988Z,16.56
2018-09-11T04:33:29.008Z,16.55
2018-09-11T04:35:57.420Z,16.49
2018-09-11T04:38:25.620Z,16.51
2018-09-11T04:40:53.642Z,16.51
2018-09-11T04:43:21.806Z,16.51
2018-09-11T04:45:49.872Z,16.47
2018-09-11T04:48:18.206Z,16.45
2018-09-11T04:50:46.254Z,16.46
2018-09-11T04:53:14.283Z,16.44
2018-09-11T04:55:42.308Z,16.44
2018-09-11T04:58:10.346Z,16.42
2018-09-11T05:00:38.533Z,16.43
2018-09-11T05:03:06.649Z,16.44
2018-09-11T05:05:34.678Z,16.42
2018-09-11T05:08:02.824Z,16.40
2018-09-11T05:10:40.645Z,16.43
2018-09-11T05:13:23.892Z,16.45
2018-09-11T05:18:39.787Z,16.47
2018-09-11T05:21:07.864Z,16.53
2018-09-11T05:23:55.116Z,16.57
2018-09-11T05:26:23.147Z,16.56
2018-09-11T05:28:51.576Z,16.57
2018-09-11T05:31:19.608Z,16.61
2018-09-11T05:33:47.864Z,16.66
2018-09-11T05:36:38.288Z,16.69
2018-09-11T05:39:08.579Z,16.71
2018-09-11T05:41:36.653Z,16.76
2018-09-11T05:44:05.561Z,16.82
2018-09-11T05:46:33.630Z,16.86
2018-09-11T05:49:02.010Z,16.89
2018-09-11T05:51:30.036Z,16.90
2018-09-11T05:53:58.067Z,16.93
2018-09-11T05:56:26.106Z,16.96
2018-09-11T05:58:54.146Z,16.99
2018-09-11T06:01:22.147Z,16.97
2018-09-11T06:03:50.203Z,17.02
2018-09-11T06:06:18.235Z,17.06
2018-09-11T06:08:46.498Z,17.11
2018-09-11T06:11:14.625Z,17.15
2018-09-11T06:13:42.644Z,17.17
2018-09-11T06:16:10.941Z,17.23
2018-09-11T06:18:38.912Z,17.25
2018-09-11T06:21:06.949Z,17.26
2018-09-11T06:23:35.233Z,17.32
2018-09-11T06:26:03.506Z,17.37
2018-09-11T06:28:31.717Z,17.43
2018-09-11T06:30:59.768Z,17.46
2018-09-11T06:33:27.995Z,17.54
2018-09-11T06:35:56.025Z,17.56
2018-09-11T06:38:24.061Z,17.63
2018-09-11T06:40:52.349Z,17.67
2018-09-11T06:43:20.383Z,17.73
2018-09-11T06:45:48.402Z,17.76
2018-09-11T06:48:16.474Z,17.80
2018-09-11T06:50:44.545Z,17.86
2018-09-11T06:53:12.518Z,17.86
2018-09-11T06:55:40.537Z,17.92
2018-09-11T06:58:08.727Z,17.93
2018-09-11T07:00:36.856Z,17.93
2018-09-11T07:03:05.297Z,17.97
2018-09-11T07:05:33.325Z,18.00
2018-09-11T07:08:01.729Z,18.03
2018-09-11T07:10:29.796Z,18.06
2018-09-11T07:12:57.911Z,18.07
2018-09-11T07:15:25.945Z,18.11
2018-09-11T07:17:54.180Z,18.10
2018-09-11T07:20:22.544Z,18.16
2018-09-11T07:22:50.471Z,18.19
2018-09-11T07:25:18.529Z,18.18
2018-09-11T07:27:46.602Z,18.20
2018-09-11T07:30:15.041Z,18.22
2018-09-11T07:32:43.019Z,18.27
2018-09-11T07:35:11.133Z,18.32
2018-09-11T07:37:39.272Z,18.35
2018-09-11T07:40:07.650Z,18.40
2018-09-11T07:42:35.704Z,18.41
2018-09-11T07:45:03.960Z,18.45
2018-09-11T07:47:32.101Z,18.52
2018-09-11T07:50:00.160Z,18.58
2018-09-11T07:52:28.207Z,18.65
2018-09-11T07:54:56.347Z,18.68
2018-09-11T07:57:24.736Z,18.68
2018-09-11T07:59:52.741Z,18.75
2018-09-11T08:02:20.759Z,18.84
2018-09-11T08:04:49.925Z,18.95
2018-09-11T08:07:18.002Z,19.04
2018-09-11T08:09:46.133Z,19.16
2018-09-11T08:12:14.152Z,19.29
2018-09-11T08:14:42.424Z,19.35
2018-09-11T08:17:10.507Z,19.36
2018-09-11T08:19:38.745Z,19.41
2018-09-11T08:22:06.905Z,19.45
2018-09-11T08:24:34.928Z,19.54
2018-09-11T08:27:03.368Z,19.61
2018-09-11T08:29:31.535Z,19.61
2018-09-11T08:31:59.473Z,19.65
2018-09-11T08:34:27.492Z,19.63
2018-09-11T08:36:55.516Z,19.61
2018-09-11T08:39:23.528Z,19.61
2018-09-11T08:41:51.557Z,19.66
2018-09-11T08:44:19.573Z,19.64
2018-09-11T08:46:47.670Z,19.63
2018-09-11T08:49:15.614Z,19.72
2018-09-11T08:51:43.640Z,19.80
2018-09-11T08:54:11.847Z,19.87
2018-09-11T08:56:39.940Z,19.87
2018-09-11T09:18:59.696Z,20.05
2018-09-11T09:21:27.725Z,20.08
2018-09-11T09:23:55.817Z,20.16
2018-09-11T09:26:23.887Z,20.27
2018-09-11T09:28:51.922Z,20.40
2018-09-11T09:31:20.187Z,20.47
2018-09-11T09:33:48.261Z,20.41
2018-09-11T09:36:16.287Z,20.43
2018-09-11T09:38:44.376Z,20.49
2018-09-11T09:41:12.591Z,20.56
2018-09-11T09:43:40.616Z,20.68
2018-09-11T09:46:08.696Z,20.79
2018-09-11T09:48:36.795Z,20.91
2018-09-11T09:51:05.176Z,21.11
2018-09-11T09:53:33.264Z,21.13
2018-09-11T09:56:01.311Z,21.25
2018-09-11T09:58:29.624Z,21.31
2018-09-11T10:01:01.844Z,21.42
2018-09-11T10:03:30.304Z,21.54
2018-09-11T10:05:58.327Z,21.53
2018-09-11T10:08:26.583Z,21.53
2018-09-11T10:10:54.592Z,21.66
2018-09-11T10:13:22.645Z,21.73
2018-09-11T10:15:50.812Z,21.70
2018-09-11T10:18:18.900Z,21.76
2018-09-11T10:20:46.955Z,21.89
2018-09-11T10:23:15.320Z,21.97
2018-09-11T10:25:43.382Z,22.07
2018-09-11T10:28:11.448Z,22.15
2018-09-11T10:30:39.824Z,22.17
2018-09-11T10:33:07.853Z,22.14
2018-09-11T10:35:35.967Z,22.27
2018-09-11T10:38:04.913Z,22.41
2018-09-11T10:40:32.937Z,22.53
2018-09-11T10:43:01.080Z,22.64
2018-09-11T10:45:29.196Z,22.84
2018-09-11T10:47:57.260Z,22.99
2018-09-11T10:50:25.325Z,23.07
2018-09-11T10:52:53.365Z,23.15
2018-09-11T10:55:21.383Z,23.33
2018-09-11T10:57:49.608Z,23.37
2018-09-11T11:00:17.820Z,23.55
2018-09-11T11:02:46.212Z,23.80
2018-09-11T11:05:14.216Z,23.89
2018-09-11T11:07:42.224Z,24.01
2018-09-11T11:10:10.492Z,23.92
2018-09-11T11:12:38.520Z,23.86
2018-09-11T11:15:06.573Z,24.02
2018-09-11T11:17:34.592Z,24.15
2018-09-11T11:20:02.660Z,24.19
2018-09-11T11:22:30.732Z,24.17
2018-09-11T11:24:58.806Z,24.34
2018-09-11T11:27:26.828Z,24.40
2018-09-11T11:29:55.006Z,24.41
2018-09-11T11:32:23.041Z,24.43
2018-09-11T11:34:51.219Z,24.49
2018-09-11T11:37:19.488Z,24.52
2018-09-11T11:39:47.668Z,24.61
2018-09-11T11:42:15.858Z,24.65
2018-09-11T11:44:43.840Z,24.59
2018-09-11T11:47:12.065Z,24.64
2018-09-11T11:49:40.113Z,24.81
2018-09-11T11:52:08.136Z,24.97
2018-09-11T11:54:36.195Z,25.02
2018-09-11T11:57:04.724Z,25.15
2018-09-11T11:59:32.836Z,25.29
2018-09-11T12:02:00.992Z,25.45
2018-09-11T12:04:28.973Z,25.48
2018-09-11T12:06:57.167Z,25.56
2018-09-11T12:09:26.348Z,25.74
2018-09-11T12:11:54.391Z,25.83
2018-09-11T12:14:22.508Z,26.02
2018-09-11T12:16:50.595Z,26.09
2018-09-11T12:19:18.605Z,26.30
2018-09-11T12:21:46.725Z,26.45
2018-09-11T12:24:14.780Z,26.49
2018-09-11T12:26:42.849Z,26.57
2018-09-11T12:29:10.868Z,26.59
2018-09-11T12:31:39.181Z,26.43
2018-09-11T12:34:07.383Z,26.32
2018-09-11T12:36:35.413Z,26.17
2018-09-11T12:39:03.486Z,25.94
2018-09-11T12:41:31.496Z,25.67
2018-09-11T12:43:59.529Z,25.64
2018-09-11T12:46:28.082Z,25.71
2018-09-11T12:48:55.809Z,25.66
2018-09-11T12:51:23.821Z,25.56
2018-09-11T12:53:51.847Z,25.46
2018-09-11T12:56:19.889Z,25.26
2018-09-11T12:58:47.916Z,25.25
2018-09-11T13:01:16.156Z,25.29
2018-09-11T13:03:44.179Z,25.25
2018-09-11T13:06:12.202Z,25.19
2018-09-11T13:08:40.380Z,25.19
2018-09-11T13:11:08.452Z,25.18
2018-09-11T13:13:36.517Z,25.17
2018-09-11T13:16:05.537Z,25.17
2018-09-11T13:18:33.705Z,25.15
2018-09-11T13:21:01.729Z,25.17
2018-09-11T13:23:29.761Z,25.14
2018-09-11T13:25:57.863Z,25.13
2018-09-11T13:28:25.901Z,25.13
2018-09-11T13:30:54.045Z,25.10
2018-09-11T13:33:22.074Z,24.99
2018-09-11T13:35:50.100Z,24.99
2018-09-11T13:38:18.179Z,24.97
2018-09-11T13:40:46.242Z,25.02
2018-09-11T13:43:14.271Z,25.09
2018-09-11T13:45:42.376Z,25.18
2018-09-11T13:48:10.420Z,25.22
2018-09-11T13:50:38.470Z,25.23
2018-09-11T13:53:06.591Z,25.27
2018-09-11T13:55:34.676Z,25.25
2018-09-11T13:58:02.696Z,25.37
2018-09-11T14:00:30.788Z,25.45
2018-09-11T14:02:58.871Z,25.51
2018-09-11T14:08:33.248Z,25.55
2018-09-11T14:11:01.291Z,25.50
2018-09-11T14:13:29.315Z,25.53
2018-09-11T14:15:57.481Z,25.63
2018-09-11T14:18:25.507Z,25.60
2018-09-11T14:20:53.559Z,25.62
2018-09-11T14:23:21.580Z,25.58
2018-09-11T14:25:49.601Z,25.61
2018-09-11T14:28:17.844Z,25.60
2018-09-11T14:30:45.857Z,25.60
2018-09-11T14:33:14.125Z,25.58
2018-09-11T14:35:42.356Z,25.63
2018-09-11T14:38:10.425Z,25.65
2018-09-11T14:40:38.666Z,25.60
2018-09-11T14:43:07.025Z,25.58
2018-09-11T14:45:35.054Z,25.61
2018-09-11T14:48:03.078Z,25.59
2018-09-11T14:50:31.127Z,25.57
2018-09-11T14:52:59.169Z,25.61
2018-09-11T14:55:27.212Z,25.64
2018-09-11T14:57:55.260Z,25.64
2018-09-11T15:00:23.340Z,25.62
2018-09-11T15:02:51.324Z,25.62
2018-09-11T15:05:19.512Z,25.58
2018-09-11T15:07:47.989Z,25.53
2018-09-11T15:10:16.056Z,25.56
2018-09-11T15:12:44.084Z,25.57
2018-09-11T15:15:12.192Z,25.62
2018-09-11T15:17:40.303Z,25.65
2018-09-11T15:20:08.326Z,25.64
2018-09-11T15:22:36.379Z,25.59
2018-09-11T15:25:04.891Z,25.55
2018-09-11T15:27:33.067Z,25.51
2018-09-11T15:30:01.161Z,25.48
2018-09-11T15:32:29.088Z,25.48
2018-09-11T15:34:57.113Z,25.50
2018-09-11T15:37:25.140Z,25.49
2018-09-11T15:39:53.157Z,25.50
2018-09-11T15:42:21.219Z,25.52
2018-09-11T15:44:49.567Z,25.52
2018-09-11T15:47:17.601Z,25.53
2018-09-11T15:49:45.622Z,25.55
2018-09-11T15:52:13.777Z,25.57
2018-09-11T15:54:52.408Z,25.58
2018-09-11T15:57:20.451Z,25.48
2018-09-11T15:59:48.477Z,25.46
2018-09-11T16:05:09.472Z,25.39
2018-09-11T16:07:37.591Z,25.37
2018-09-11T16:10:06.664Z,25.37
2018-09-11T16:12:34.913Z,25.36
2018-09-11T16:15:02.978Z,25.28
2018-09-11T16:17:30.940Z,25.24
2018-09-11T16:19:58.971Z,25.22
2018-09-11T16:22:26.996Z,25.23
2018-09-11T16:24:55.012Z,25.24
2018-09-11T16:27:23.059Z,25.21
2018-09-11T16:29:51.462Z,25.19
2018-09-11T16:32:19.460Z,25.16
2018-09-11T16:34:47.640Z,25.13
2018-09-11T16:37:15.644Z,25.11
2018-09-11T16:39:43.669Z,25.05
2018-09-11T16:42:11.681Z,25.02
2018-09-11T16:44:39.696Z,25.02
2018-09-11T16:47:07.708Z,25.01
2018-09-11T16:49:36.909Z,25.01
2018-09-11T16:52:05.459Z,24.99
2018-09-11T16:54:35.367Z,24.97
2018-09-11T16:57:04.504Z,24.97
2018-09-11T16:59:32.545Z,24.96
2018-09-11T17:02:00.640Z,24.95
2018-09-11T17:04:28.688Z,24.96
2018-09-11T17:06:56.734Z,24.96
2018-09-11T17:09:24.836Z,24.98
2018-09-11T17:11:52.880Z,24.95
2018-09-11T17:14:21.144Z,24.90
2018-09-11T17:16:49.186Z,24.91
2018-09-11T17:19:17.200Z,24.91
2018-09-11T17:21:45.508Z,24.88
2018-09-11T17:24:13.592Z,24.90
2018-09-11T17:26:45.569Z,24.89
2018-09-11T17:29:13.604Z,24.86
2018-09-11T17:31:41.772Z,24.85
2018-09-11T17:34:10.167Z,24.86
2018-09-11T17:36:39.473Z,24.82
2018-09-11T17:39:08.760Z,24.80
2018-09-11T17:41:36.858Z,24.77
2018-09-11T17:44:05.504Z,24.75
2018-09-11T17:46:33.565Z,24.70
2018-09-11T17:49:01.735Z,24.68
2018-09-11T17:54:22.593Z,24.55
2018-09-11T17:56:50.625Z,24.49
2018-09-11T17:59:18.667Z,24.44
2018-09-11T18:01:46.692Z,24.38
2018-09-11T18:04:14.716Z,24.37
2018-09-11T18:06:42.733Z,24.33
2018-09-11T18:09:11.126Z,24.31
2018-09-11T18:11:39.162Z,24.29
2018-09-11T18:14:07.201Z,24.28
2018-09-11T18:16:35.359Z,24.28
2018-09-11T18:19:03.384Z,24.27
2018-09-11T18:21:42.750Z,24.24
2018-09-11T18:24:10.790Z,24.22
2018-09-11T18:26:38.821Z,24.21
2018-09-11T18:29:06.851Z,24.18
2018-09-11T18:31:34.872Z,24.19
2018-09-11T18:34:02.901Z,24.15
2018-09-11T18:36:31.290Z,24.11
2018-09-11T18:39:01.476Z,24.06
2018-09-11T18:41:29.497Z,24.02
2018-09-11T18:43:57.533Z,24.01
2018-09-11T18:46:25.553Z,24.00
2018-09-11T18:48:53.584Z,23.96
2018-09-11T18:51:21.623Z,23.91
2018-09-11T18:53:49.641Z,23.84
2018-09-11T18:56:17.678Z,23.84
2018-09-11T18:58:45.712Z,23.83
2018-09-11T19:01:14.240Z,23.77
2018-09-11T19:03:42.665Z,23.75
2018-09-11T19:06:10.681Z,23.74
2018-09-11T19:08:38.737Z,23.70
2018-09-11T19:11:07.022Z,23.63
2018-09-11T19:13:34.958Z,23.62
2018-09-11T19:16:02.980Z,23.60
2018-09-11T19:18:31.037Z,23.61
2018-09-11T19:20:59.063Z,23.59
2018-09-11T19:23:27.133Z,23.57
2018-09-11T19:25:55.244Z,23.55
2018-09-11T19:28:23.512Z,23.53
2018-09-11T19:30:51.565Z,23.53
2018-09-11T19:33:19.595Z,23.52
2018-09-11T19:35:55.499Z,23.55
2018-09-11T19:38:25.120Z,23.62
2018-09-11T19:40:53.155Z,23.63
2018-09-11T19:43:21.492Z,23.60
2018-09-11T19:45:49.690Z,23.59
2018-09-11T19:48:34.736Z,23.57
2018-09-11T19:51:02.789Z,23.54
2018-09-11T19:53:30.832Z,23.53
2018-09-11T19:55:58.869Z,23.47
2018-09-11T19:58:27.058Z,23.45
2018-09-11T20:00:55.250Z,23.41
2018-09-11T20:03:23.607Z,23.41
2018-09-11T20:05:51.652Z,23.41
2018-09-11T20:08:19.867Z,23.40
2018-09-11T20:10:48.046Z,23.40
2018-09-11T20:13:16.119Z,23.39
2018-09-11T20:15:44.140Z,23.36
2018-09-11T20:18:12.209Z,23.31
2018-09-11T20:20:40.257Z,23.25
2018-09-11T20:23:08.310Z,23.21
2018-09-11T20:25:36.361Z,23.16
2018-09-11T20:28:05.305Z,23.12
2018-09-11T20:30:33.338Z,23.05
2018-09-11T20:33:01.770Z,22.98
2018-09-11T20:35:29.810Z,22.92
2018-09-11T20:37:57.861Z,22.85
2018-09-11T20:40:25.918Z,22.76
2018-09-11T20:42:53.993Z,22.75
2018-09-11T20:45:22.169Z,22.74
2018-09-11T20:47:50.208Z,22.72
2018-09-11T20:50:18.240Z,22.71
2018-09-11T20:52:46.343Z,22.72
2018-09-11T20:55:14.414Z,22.67
2018-09-11T20:57:45.469Z,22.64
2018-09-11T21:00:13.519Z,22.60
2018-09-11T21:02:41.573Z,22.56
2018-09-11T21:05:09.607Z,22.54
2018-09-11T21:07:37.640Z,22.48
2018-09-11T21:10:05.666Z,22.46
2018-09-11T21:12:33.736Z,22.45
2018-09-11T21:15:01.752Z,22.41
2018-09-11T21:17:30.733Z,22.37
2018-09-11T21:19:58.764Z,22.32
2018-09-11T21:22:26.793Z,22.26
2018-09-11T21:24:54.857Z,22.22
2018-09-11T21:27:22.881Z,22.18
2018-09-11T21:29:50.915Z,22.11
2018-09-11T21:32:18.955Z,22.08
2018-09-11T21:34:47.008Z,22.05
2018-09-11T21:37:15.034Z,22.02
2018-09-11T21:39:43.092Z,22.02
2018-09-11T21:42:11.076Z,21.98
2018-09-11T21:44:39.119Z,21.95
2018-09-11T21:47:07.156Z,21.93
2018-09-11T21:49:35.204Z,21.88
2018-09-11T21:52:03.298Z,21.84
2018-09-11T21:54:31.268Z,21.79
2018-09-11T21:56:59.314Z,21.80
2018-09-11T21:59:27.345Z,21.80
2018-09-11T22:01:59.567Z,21.79
2018-09-11T22:04:27.609Z,21.76
2018-09-11T22:06:55.630Z,21.73
2018-09-11T22:09:23.660Z,21.70
2018-09-11T22:11:51.766Z,21.60
2018-09-11T22:14:19.747Z,21.52
2018-09-11T22:16:47.804Z,21.47
2018-09-11T22:19:15.932Z,21.43
2018-09-11T22:21:43.898Z,21.40
2018-09-11T22:24:11.946Z,21.34
2018-09-11T22:26:39.996Z,21.29
2018-09-11T22:29:08.045Z,21.30
2018-09-11T22:31:36.124Z,21.26
2018-09-11T22:34:04.760Z,21.26
2018-09-11T22:36:32.804Z,21.27
2018-09-11T22:39:00.877Z,21.27
2018-09-11T22:41:28.929Z,21.28
2018-09-11T22:43:56.973Z,21.28
2018-09-11T22:46:25.226Z,21.25
2018-09-11T22:48:53.281Z,21.24
2018-09-11T22:51:21.322Z,21.21
2018-09-11T22:53:49.361Z,21.21
2018-09-11T22:56:17.388Z,21.17
2018-09-11T22:58:45.424Z,21.12
2018-09-11T23:01:13.485Z,21.08
2018-09-11T23:03:41.520Z,21.00
2018-09-11T23:06:09.566Z,20.99
2018-09-11T23:08:37.637Z,20.97
2018-09-11T23:11:05.804Z,20.98
2018-09-11T23:13:33.837Z,20.94
2018-09-11T23:16:01.878Z,20.89
2018-09-11T23:18:29.964Z,20.79
2018-09-11T23:20:58.000Z,20.74
2018-09-11T23:23:26.020Z,20.65
2018-09-11T23:25:54.052Z,20.62
2018-09-11T23:28:22.089Z,20.63
2018-09-11T23:30:50.136Z,20.58
2018-09-11T23:33:18.176Z,20.56
2018-09-11T23:35:46.216Z,20.54
2018-09-11T23:38:14.255Z,20.52
2018-09-11T23:40:42.273Z,20.49
2018-09-11T23:43:10.310Z,20.51
2018-09-11T23:45:38.349Z,20.55
2018-09-11T23:48:06.387Z,20.53
2018-09-11T23:50:34.530Z,20.56
2018-09-11T23:53:02.552Z,20.52
2018-09-11T23:55:30.580Z,20.50
2018-09-11T23:57:58.604Z,20.49
